Time;durP1;ratioP1;P1;durP2;ratioP2;P2;SDS_P1;SDS_P2;PMS_P1;PMS_P2;Temp;Humidity;BMP_temperature;BMP_pressure;BME280_temperature;BME280_humidity;BME280_pressure;Samples;Min_cycle;Max_cycle;Signal;HPM_P1;HPM_P2
2023/05/28 00:00:10;;;;;;;0.13;0.13;;;;;;;11.51;66.35;97914.19;5014475;28;20037;-73
2023/05/28 00:02:45;;;;;;;0.20;0.20;;;;;;;11.42;66.57;97915.34;5013958;28;20077;-73
2023/05/28 00:05:13;;;;;;;0.20;0.20;;;;;;;11.28;67.17;97914.38;5021461;28;20047;-72
2023/05/28 00:07:42;;;;;;;0.20;0.20;;;;;;;11.28;67.22;97915.22;5031972;28;20045;-72
2023/05/28 00:10:11;;;;;;;0.20;0.20;;;;;;;11.24;67.16;97908.59;5032182;28;20075;-72
2023/05/28 00:12:38;;;;;;;0.20;0.20;;;;;;;11.12;67.46;97915.44;5028879;28;20116;-72
2023/05/28 00:15:07;;;;;;;0.20;0.20;;;;;;;11.23;66.99;97906.09;5030459;28;20378;-71
2023/05/28 00:17:35;;;;;;;0.10;0.10;;;;;;;11.20;67.13;97914.53;5010886;28;20052;-72
2023/05/28 00:20:05;;;;;;;0.20;0.20;;;;;;;11.15;66.71;97906.25;5027878;28;20041;-72
2023/05/28 00:22:33;;;;;;;0.17;0.17;;;;;;;10.96;67.66;97899.69;5032719;28;20045;-73
2023/05/28 00:25:03;;;;;;;0.20;0.20;;;;;;;11.11;66.96;97895.09;5027691;28;20488;-73
2023/05/28 00:27:30;;;;;;;0.20;0.20;;;;;;;11.00;67.26;97900.97;5032515;28;20037;-73
2023/05/28 00:29:58;;;;;;;0.20;0.20;;;;;;;10.88;67.81;97899.81;5011363;28;20424;-73
2023/05/28 00:32:25;;;;;;;0.13;0.13;;;;;;;10.87;67.77;97893.63;5027813;28;20101;-73
2023/05/28 00:34:55;;;;;;;0.13;0.13;;;;;;;11.18;66.44;97887.16;5013380;28;20123;-74
2023/05/28 00:37:23;;;;;;;0.20;0.20;;;;;;;11.06;67.00;97892.19;5013825;28;20052;-72
2023/05/28 00:39:51;;;;;;;0.20;0.20;;;;;;;10.87;67.48;97895.47;5031736;28;20045;-74
2023/05/28 00:42:20;;;;;;;0.22;0.22;;;;;;;11.05;66.91;97887.84;5009786;28;20084;-73
2023/05/28 00:44:48;;;;;;;0.20;0.20;;;;;;;10.78;67.57;97891.28;5013113;28;20033;-72
2023/05/28 00:47:16;;;;;;;0.15;0.15;;;;;;;10.70;68.05;97894.03;5028155;28;20038;-75
2023/05/28 00:49:43;;;;;;;0.20;0.20;;;;;;;10.80;67.65;97895.38;5026934;28;20112;-75
2023/05/28 00:52:11;;;;;;;0.13;0.13;;;;;;;10.48;68.60;97887.84;5010437;28;20049;-74
2023/05/28 00:54:39;;;;;;;0.17;0.17;;;;;;;10.84;67.36;97886.00;5012164;28;20065;-75
2023/05/28 00:57:07;;;;;;;0.40;0.40;;;;;;;10.63;67.94;97877.94;5011810;28;20095;-75
2023/05/28 00:59:36;;;;;;;0.20;0.20;;;;;;;10.63;67.95;97877.94;5010658;28;20195;-75
2023/05/28 01:02:05;;;;;;;0.20;0.20;;;;;;;10.58;68.05;97878.53;5031785;28;20037;-75
2023/05/28 01:04:32;;;;;;;0.10;0.10;;;;;;;10.53;68.19;97872.91;5016043;28;20133;-74
2023/05/28 01:07:01;;;;;;;0.13;0.13;;;;;;;10.49;68.49;97870.78;5034056;28;20112;-73
2023/05/28 01:09:29;;;;;;;0.20;0.20;;;;;;;10.50;68.31;97867.94;5037010;28;20033;-72
2023/05/28 01:11:57;;;;;;;0.22;0.22;;;;;;;10.41;68.61;97871.75;5010497;28;20049;-71
2023/05/28 01:14:25;;;;;;;0.20;0.20;;;;;;;10.52;68.15;97860.59;5026070;28;20049;-74
2023/05/28 01:16:58;;;;;;;0.20;0.20;;;;;;;10.35;68.62;97869.00;5033138;28;20532;-74
2023/05/28 01:19:26;;;;;;;;;;;;;;;10.58;67.86;97870.53;5034548;28;20068;-72
2023/05/28 01:21:58;;;;;;;0.20;0.20;;;;;;;10.38;68.34;97873.97;5035670;28;19949;-74
2023/05/28 01:24:28;;;;;;;0.20;0.20;;;;;;;10.21;68.78;97868.00;5009681;28;20042;-75
2023/05/28 01:26:56;;;;;;;0.25;0.25;;;;;;;10.20;68.65;97867.16;5013446;28;20049;-72
2023/05/28 01:29:24;;;;;;;0.20;0.20;;;;;;;10.13;68.83;97873.41;5016681;28;20056;-76
2023/05/28 01:31:52;;;;;;;0.10;0.10;;;;;;;10.07;69.14;97872.28;5015855;28;20072;-75
2023/05/28 01:34:19;;;;;;;0.10;0.10;;;;;;;9.92;69.49;97874.13;5016734;28;20054;-72
2023/05/28 01:36:50;;;;;;;0.10;0.10;;;;;;;9.85;69.48;97858.06;5014539;28;20132;-73
2023/05/28 01:39:20;;;;;;;0.10;0.10;;;;;;;9.78;70.13;97867.78;5034351;28;20586;-74
2023/05/28 01:41:50;;;;;;;0.20;0.20;;;;;;;9.72;70.03;97868.53;5016245;28;20056;-73
2023/05/28 01:44:19;;;;;;;0.28;0.28;;;;;;;9.65;70.53;97869.44;5011076;28;20077;-72
2023/05/28 01:46:47;;;;;;;0.13;0.13;;;;;;;9.59;70.68;97868.31;5030071;28;20046;-72
2023/05/28 01:49:15;;;;;;;0.10;0.10;;;;;;;9.40;71.45;97864.34;5013952;28;20433;-72
2023/05/28 01:51:44;;;;;;;0.10;0.10;;;;;;;9.42;71.48;97861.50;5037488;28;20048;-72
2023/05/28 01:54:12;;;;;;;0.22;0.22;;;;;;;9.37;71.40;97859.34;5006288;28;20073;-73
2023/05/28 01:56:39;;;;;;;0.20;0.20;;;;;;;9.43;71.58;97863.97;5005276;28;20034;-75
2023/05/28 01:59:08;;;;;;;0.13;0.13;;;;;;;9.76;70.09;97861.78;5006472;28;20073;-75
2023/05/28 02:01:36;;;;;;;0.10;0.10;;;;;;;9.82;69.86;97857.59;5008180;28;20042;-73
2023/05/28 02:04:07;;;;;;;0.10;0.10;;;;;;;9.80;69.80;97859.59;5015012;28;20389;-75
2023/05/28 02:06:37;;;;;;;0.10;0.10;;;;;;;9.61;70.45;97860.97;5027989;28;20048;-75
2023/05/28 02:09:04;;;;;;;0.20;0.20;;;;;;;9.40;71.08;97859.00;5034474;28;20045;-74
2023/05/28 02:11:32;;;;;;;0.17;0.17;;;;;;;9.32;71.36;97847.59;5031635;28;20077;-74
2023/05/28 02:14:00;;;;;;;0.20;0.20;;;;;;;9.22;71.65;97847.84;5011399;28;20048;-75
2023/05/28 02:16:29;;;;;;;0.15;0.15;;;;;;;9.22;71.72;97850.53;5009722;28;20125;-73
2023/05/28 02:18:58;;;;;;;0.20;0.20;;;;;;;9.16;71.80;97844.06;5015230;28;20415;-73
2023/05/28 02:21:25;;;;;;;0.20;0.20;;;;;;;9.16;71.98;97846.72;5016551;28;20049;-73
2023/05/28 02:23:53;;;;;;;0.10;0.10;;;;;;;9.18;71.62;97849.22;5007464;28;20540;-75
2023/05/28 02:26:22;;;;;;;0.20;0.20;;;;;;;9.13;71.75;97846.28;5032615;28;20037;-73
2023/05/28 02:28:49;;;;;;;0.10;0.10;;;;;;;9.09;71.85;97848.44;5033627;28;20431;-73
2023/05/28 02:31:17;;;;;;;0.20;0.20;;;;;;;9.03;71.98;97851.00;5012885;28;20077;-72
2023/05/28 02:33:46;;;;;;;0.20;0.20;;;;;;;8.98;72.07;97843.53;5033822;28;20049;-73
2023/05/28 02:36:14;;;;;;;0.10;0.10;;;;;;;9.03;72.01;97845.69;5014123;28;20073;-73
2023/05/28 02:38:43;;;;;;;0.20;0.20;;;;;;;9.01;71.99;97842.38;5034802;28;20080;-72
2023/05/28 02:41:10;;;;;;;0.28;0.28;;;;;;;9.02;71.69;97839.53;5016220;28;20107;-73
2023/05/28 02:43:43;;;;;;;0.15;0.15;;;;;;;9.04;71.67;97839.31;5033607;23;20053;-67
2023/05/28 02:46:11;;;;;;;0.10;0.10;;;;;;;8.96;71.67;97840.22;5012323;28;20500;-67
2023/05/28 02:48:40;;;;;;;0.13;0.13;;;;;;;8.83;71.97;97835.50;4991456;28;20042;-67
2023/05/28 02:51:11;;;;;;;0.20;0.20;;;;;;;8.70;72.61;97843.25;4992546;28;20500;-68
2023/05/28 02:53:52;;;;;;;0.20;0.20;;;;;;;8.70;72.62;97843.25;5002708;28;20134;-67
2023/05/28 02:56:20;;;;;;;0.20;0.20;;;;;;;8.65;72.37;97853.59;4989605;28;20043;-68
2023/05/28 02:58:48;;;;;;;0.15;0.15;;;;;;;8.61;72.85;97857.63;4999629;28;20046;-68
2023/05/28 03:01:16;;;;;;;0.17;0.17;;;;;;;8.60;72.98;97860.47;5008144;28;20042;-67
2023/05/28 03:03:44;;;;;;;0.20;0.20;;;;;;;8.67;72.55;97851.59;5008230;28;20077;-67
2023/05/28 03:06:14;;;;;;;0.20;0.20;;;;;;;8.57;72.79;97850.97;4987797;28;20050;-67
2023/05/28 03:08:50;;;;;;;;;;;;;;;8.62;72.75;97858.41;5008955;28;20046;-68
2023/05/28 03:11:18;;;;;;;0.20;0.20;;;;;;;8.64;72.64;97849.28;5011042;28;20384;-68
2023/05/28 03:13:46;;;;;;;0.15;0.15;;;;;;;8.57;72.65;97861.63;5010218;28;20054;-67
2023/05/28 03:16:14;;;;;;;0.10;0.10;;;;;;;8.56;72.63;97853.81;4993589;28;20113;-67
2023/05/28 03:18:42;;;;;;;0.20;0.20;;;;;;;8.59;72.65;97861.47;5021868;28;20547;-67
2023/05/28 03:21:10;;;;;;;0.25;0.25;;;;;;;8.67;72.27;97866.72;5027311;28;20076;-67
2023/05/28 03:23:39;;;;;;;0.20;0.20;;;;;;;8.72;72.07;97859.06;5026860;28;20095;-68
2023/05/28 03:26:28;;;;;;;0.13;0.13;;;;;;;8.76;71.82;97853.19;5031321;28;20204;-67
2023/05/28 03:28:56;;;;;;;0.25;0.25;;;;;;;8.71;71.91;97868.03;5007301;28;20420;-67
2023/05/28 03:31:47;;;;;;;0.20;0.20;;;;;;;8.68;71.90;97857.75;5019049;28;20073;-68
2023/05/28 03:34:20;;;;;;;0.20;0.20;;;;;;;8.63;71.65;97858.25;5014844;28;20041;-67
2023/05/28 03:36:48;;;;;;;0.10;0.10;;;;;;;8.63;71.88;97860.09;5015776;28;20057;-68
2023/05/28 03:39:18;;;;;;;0.20;0.20;;;;;;;8.61;71.71;97857.63;5022906;28;20052;-68
2023/05/28 03:41:49;;;;;;;0.20;0.20;;;;;;;8.67;71.48;97856.91;5036551;28;20049;-68
2023/05/28 03:44:18;;;;;;;0.40;0.40;;;;;;;8.61;71.41;97854.97;5022352;28;20060;-68
2023/05/28 03:46:48;;;;;;;0.20;0.20;;;;;;;8.61;71.48;97857.63;5010641;28;20052;-67
2023/05/28 03:49:16;;;;;;;0.10;0.10;;;;;;;8.55;71.59;97860.97;5025403;28;20092;-67
2023/05/28 03:51:44;;;;;;;0.13;0.13;;;;;;;8.69;71.26;97862.06;5023816;28;20165;-66
2023/05/28 03:54:12;;;;;;;0.30;0.30;;;;;;;8.62;71.36;97863.75;5012373;28;20042;-67
2023/05/28 03:56:41;;;;;;;0.15;0.15;;;;;;;8.49;71.85;97852.88;5023091;28;20045;-66
2023/05/28 03:59:09;;;;;;;0.20;0.20;;;;;;;8.58;71.52;97855.31;5026859;28;20037;-67
2023/05/28 04:01:37;;;;;;;0.10;0.10;;;;;;;8.50;71.75;97857.19;5020017;28;20048;-66
2023/05/28 04:04:07;;;;;;;0.20;0.20;;;;;;;8.61;71.54;97846.16;5013942;28;20484;-68
2023/05/28 04:06:34;;;;;;;0.10;0.10;;;;;;;8.64;71.24;97846.59;5002337;28;20042;-67
2023/05/28 04:09:02;;;;;;;0.20;0.20;;;;;;;8.73;71.28;97850.88;5029958;28;20041;-67
2023/05/28 04:11:30;;;;;;;0.20;0.20;;;;;;;8.70;71.17;97850.41;5011850;28;20041;-67
2023/05/28 04:14:01;;;;;;;0.20;0.20;;;;;;;8.73;71.24;97858.03;5011110;28;20045;-67
2023/05/28 04:16:29;;;;;;;0.10;0.10;;;;;;;8.62;71.47;97853.09;5018346;28;20053;-67
2023/05/28 04:18:57;;;;;;;0.10;0.10;;;;;;;8.43;72.06;97852.56;5020062;28;20053;-67
2023/05/28 04:21:25;;;;;;;0.10;0.10;;;;;;;8.61;71.67;97854.13;5012296;28;20041;-67
2023/05/28 04:23:52;;;;;;;0.20;0.20;;;;;;;8.71;71.25;97857.41;5004531;28;21688;-67
2023/05/28 04:26:21;;;;;;;0.20;0.20;;;;;;;8.74;71.43;97849.88;5030066;28;20551;-67
2023/05/28 04:28:50;;;;;;;0.22;0.22;;;;;;;8.58;71.72;97846.50;5026716;28;20532;-67
2023/05/28 04:31:19;;;;;;;0.20;0.20;;;;;;;8.45;72.31;97852.38;5029885;28;20095;-68
2023/05/28 04:33:48;;;;;;;0.20;0.20;;;;;;;8.45;72.60;97855.03;5004015;28;20045;-67
2023/05/28 04:36:16;;;;;;;0.22;0.22;;;;;;;8.77;71.40;97854.00;5028830;28;20470;-67
2023/05/28 04:38:43;;;;;;;0.32;0.32;;;;;;;8.71;71.58;97847.59;5004550;28;20152;-67
2023/05/28 04:41:14;;;;;;;0.25;0.25;;;;;;;8.48;72.67;97844.06;5000083;28;20565;-66
2023/05/28 04:43:42;;;;;;;0.20;0.20;;;;;;;8.51;72.97;97846.38;5030236;28;20070;-67
2023/05/28 04:46:10;;;;;;;0.20;0.20;;;;;;;8.66;72.28;97849.94;5028737;28;20064;-67
2023/05/28 04:48:39;;;;;;;0.15;0.15;;;;;;;8.72;71.96;97853.72;5031153;28;20088;-67
2023/05/28 04:51:07;;;;;;;0.20;0.20;;;;;;;8.68;72.38;97847.09;5024843;28;20113;-68
2023/05/28 04:53:34;;;;;;;0.28;0.28;;;;;;;8.99;71.62;97855.03;5002961;28;20393;-67
2023/05/28 04:56:03;;;;;;;0.00;0.00;;;;;;;9.00;71.46;97843.38;5028768;28;20049;-67
2023/05/28 04:58:32;;;;;;;0.10;0.10;;;;;;;8.99;71.62;97847.03;5031282;28;20039;-67
2023/05/28 05:00:59;;;;;;;0.13;0.13;;;;;;;8.97;71.80;97849.03;5012419;28;20049;-68
2023/05/28 05:03:31;;;;;;;0.20;0.20;;;;;;;8.93;71.97;97845.91;5023448;28;20501;-67
2023/05/28 05:06:01;;;;;;;0.10;0.10;;;;;;;8.94;72.29;97838.75;5027553;28;20497;-67
2023/05/28 05:08:29;;;;;;;0.10;0.10;;;;;;;9.02;71.98;97839.53;5018402;28;20432;-67
2023/05/28 05:10:56;;;;;;;0.20;0.20;;;;;;;9.08;71.57;97844.13;5019038;28;20046;-66
2023/05/28 05:13:24;;;;;;;0.10;0.10;;;;;;;9.16;71.80;97838.72;5011273;28;20060;-67
2023/05/28 05:15:52;;;;;;;0.10;0.10;;;;;;;9.24;71.40;97839.69;5015272;28;20048;-67
2023/05/28 05:18:21;;;;;;;0.20;0.20;;;;;;;9.30;71.31;97841.63;5001397;28;20037;-67
2023/05/28 05:20:49;;;;;;;0.22;0.22;;;;;;;9.35;70.97;97841.88;5021174;28;20493;-67
2023/05/28 05:23:18;;;;;;;0.13;0.13;;;;;;;9.48;70.91;97839.44;5017697;28;20053;-67
2023/05/28 05:25:48;;;;;;;0.10;0.10;;;;;;;9.52;70.72;97838.91;5011142;28;20077;-66
2023/05/28 05:28:17;;;;;;;0.15;0.15;;;;;;;9.65;70.29;97837.47;5016256;28;20551;-67
2023/05/28 05:30:44;;;;;;;0.20;0.20;;;;;;;9.76;70.55;97839.66;4998501;28;20149;-67
2023/05/28 05:33:12;;;;;;;0.30;0.30;;;;;;;9.81;70.20;97837.25;5025853;28;20046;-67
2023/05/28 05:36:01;;;;;;;0.10;0.10;;;;;;;9.86;70.06;97827.69;5028124;28;20053;-67
2023/05/28 05:38:46;;;;;;;0.20;0.20;;;;;;;9.99;70.07;97831.56;5012220;28;20045;-67
2023/05/28 05:41:30;;;;;;;0.20;0.20;;;;;;;10.23;69.95;97828.63;5029712;28;20057;-66
2023/05/28 05:44:15;;;;;;;0.20;0.20;;;;;;;10.19;69.86;97835.34;5025245;28;20046;-67
2023/05/28 05:46:43;;;;;;;0.17;0.17;;;;;;;10.24;69.86;97843.63;5012117;28;20050;-67
2023/05/28 05:49:11;;;;;;;0.22;0.22;;;;;;;10.32;69.90;97829.34;5019110;28;20557;-67
2023/05/28 05:51:38;;;;;;;0.10;0.10;;;;;;;10.40;69.67;97838.06;5012209;28;20045;-68
2023/05/28 05:54:08;;;;;;;0.13;0.13;;;;;;;10.47;69.36;97833.66;5014223;28;20041;-67
2023/05/28 05:56:35;;;;;;;0.20;0.20;;;;;;;10.53;69.23;97829.38;5026740;28;20038;-66
2023/05/28 05:59:03;;;;;;;0.20;0.20;;;;;;;10.62;69.45;97830.91;5019328;28;20117;-67
2023/05/28 06:01:32;;;;;;;0.20;0.20;;;;;;;10.62;69.45;97822.91;5006666;28;20044;-67
2023/05/28 06:04:00;;;;;;;0.20;0.20;;;;;;;10.68;69.66;97832.03;5015209;28;20076;-68
2023/05/28 06:06:46;;;;;;;0.13;0.13;;;;;;;10.83;69.35;97836.28;5031574;28;20044;-67
2023/05/28 06:09:37;;;;;;;0.15;0.15;;;;;;;10.97;68.81;97834.56;5034312;28;20049;-67
2023/05/28 06:12:10;;;;;;;0.20;0.20;;;;;;;11.07;68.75;97831.56;5025937;28;20041;-67
2023/05/28 06:14:38;;;;;;;0.30;0.30;;;;;;;11.19;68.84;97843.41;5021235;28;20072;-67
2023/05/28 06:17:06;;;;;;;0.17;0.17;;;;;;;11.29;68.29;97836.72;5025048;28;20120;-67
2023/05/28 06:19:34;;;;;;;0.13;0.13;;;;;;;11.43;68.36;97836.78;5008156;28;20046;-67
2023/05/28 06:22:03;;;;;;;0.15;0.15;;;;;;;11.58;67.81;97829.53;5020734;28;20047;-68
2023/05/28 06:24:31;;;;;;;0.20;0.20;;;;;;;11.63;67.97;97829.75;5011647;28;20141;-67
2023/05/28 06:27:03;;;;;;;0.30;0.30;;;;;;;11.66;67.22;97826.69;5016786;28;20080;-68
2023/05/28 06:29:30;;;;;;;0.10;0.10;;;;;;;11.83;66.93;97828.09;5023423;28;20042;-67
2023/05/28 06:31:58;;;;;;;0.10;0.10;;;;;;;11.98;66.45;97826.09;5016947;28;20696;-67
2023/05/28 06:34:26;;;;;;;0.10;0.10;;;;;;;12.11;66.61;97822.66;5031867;28;20037;-68
2023/05/28 06:36:54;;;;;;;0.20;0.20;;;;;;;12.11;65.87;97828.84;5013207;28;20045;-68
2023/05/28 06:39:22;;;;;;;0.10;0.10;;;;;;;12.25;65.58;97820.88;5028756;28;20033;-67
2023/05/28 06:41:51;;;;;;;0.10;0.10;;;;;;;12.35;64.64;97826.69;5016037;28;20528;-67
2023/05/28 06:44:32;;;;;;;0.20;0.20;;;;;;;12.54;64.01;97825.94;5014651;28;20404;-68
2023/05/28 06:47:08;;;;;;;0.20;0.20;;;;;;;12.71;62.71;97827.22;5031886;28;20468;-67
2023/05/28 06:49:35;;;;;;;0.17;0.17;;;;;;;12.86;62.80;97824.38;5018940;28;20045;-67
2023/05/28 06:52:03;;;;;;;0.20;0.20;;;;;;;12.97;61.84;97818.41;5011241;28;20104;-68
2023/05/28 06:54:31;;;;;;;0.10;0.10;;;;;;;13.14;61.94;97818.88;5035491;28;20551;-68
2023/05/28 06:56:59;;;;;;;0.20;0.20;;;;;;;13.18;61.87;97820.13;5013034;28;20059;-68
2023/05/28 06:59:44;;;;;;;0.10;0.10;;;;;;;13.46;61.54;97825.25;5027770;28;20065;-68
2023/05/28 07:02:32;;;;;;;0.20;0.20;;;;;;;13.66;60.89;97836.78;5007711;28;20054;-67
2023/05/28 07:05:14;;;;;;;0.10;0.10;;;;;;;13.87;60.22;97825.00;5024314;28;20388;-67
2023/05/28 07:07:43;;;;;;;0.13;0.13;;;;;;;14.05;59.38;97825.16;5005980;28;20149;-67
2023/05/28 07:10:11;;;;;;;0.20;0.20;;;;;;;14.19;59.15;97825.94;5022647;28;20091;-68
2023/05/28 07:12:43;;;;;;;0.17;0.17;;;;;;;14.34;59.67;97824.63;5011906;28;20052;-67
2023/05/28 07:15:12;;;;;;;0.10;0.10;;;;;;;14.45;58.58;97827.72;5010707;28;20083;-68
2023/05/28 07:17:40;;;;;;;0.20;0.20;;;;;;;14.48;57.44;97833.50;5006027;28;20496;-68
2023/05/28 07:20:08;;;;;;;0.20;0.20;;;;;;;14.67;56.49;97824.53;5026735;28;20163;-67
2023/05/28 07:22:48;;;;;;;0.10;0.10;;;;;;;15.03;55.55;97826.59;5005487;28;20054;-68
2023/05/28 07:25:16;;;;;;;0.10;0.10;;;;;;;15.16;54.34;97827.53;5025191;28;20080;-67
2023/05/28 07:27:44;;;;;;;0.10;0.10;;;;;;;15.28;54.65;97823.09;5031254;28;20049;-67
2023/05/28 07:30:17;;;;;;;0.15;0.15;;;;;;;15.47;54.26;97824.78;5007013;28;20041;-72
2023/05/28 07:32:45;;;;;;;0.10;0.10;;;;;;;15.55;52.72;97823.75;5031655;28;20519;-70
2023/05/28 07:35:13;;;;;;;0.13;0.13;;;;;;;15.75;52.08;97827.06;5004838;28;20523;-70
2023/05/28 07:37:41;;;;;;;0.20;0.20;;;;;;;15.88;52.28;97824.25;5027203;28;20408;-70
2023/05/28 07:40:10;;;;;;;0.20;0.20;;;;;;;16.15;51.08;97828.31;5028406;28;20077;-70
2023/05/28 07:42:38;;;;;;;0.10;0.10;;;;;;;16.42;51.67;97830.69;5021626;28;20268;-70
2023/05/28 07:45:07;;;;;;;0.10;0.10;;;;;;;16.70;50.19;97830.16;5006962;28;20049;-70
2023/05/28 07:47:36;;;;;;;0.10;0.10;;;;;;;16.92;49.83;97825.94;5024300;28;20042;-70
2023/05/28 07:50:15;;;;;;;0.20;0.20;;;;;;;17.15;48.83;97827.84;5024178;28;20082;-70
2023/05/28 07:52:53;;;;;;;0.10;0.10;;;;;;;17.37;48.25;97825.44;5005700;28;20045;-71
2023/05/28 07:55:21;;;;;;;0.13;0.13;;;;;;;17.54;48.58;97824.53;5030084;28;20049;-71
2023/05/28 07:57:49;;;;;;;0.17;0.17;;;;;;;17.55;46.64;97818.06;5022580;28;20124;-71
2023/05/28 08:00:18;;;;;;;0.10;0.10;;;;;;;17.79;46.14;97821.63;5024189;28;20045;-70
2023/05/28 08:03:01;;;;;;;0.10;0.10;;;;;;;18.01;46.08;97823.75;5033959;28;20069;-69
2023/05/28 08:05:39;;;;;;;0.10;0.10;;;;;;;17.96;45.35;97819.84;5011631;28;20100;-68
2023/05/28 08:08:07;;;;;;;0.10;0.10;;;;;;;18.20;45.62;97817.97;5021957;28;20095;-70
2023/05/28 08:10:37;;;;;;;0.15;0.15;;;;;;;18.34;44.41;97810.41;5025884;28;20056;-71
2023/05/28 08:13:05;;;;;;;0.10;0.10;;;;;;;18.40;44.68;97804.03;5008239;28;20045;-70
2023/05/28 08:15:33;;;;;;;0.10;0.10;;;;;;;18.63;45.55;97803.19;5037547;28;20049;-71
2023/05/28 08:18:03;;;;;;;0.13;0.13;;;;;;;18.84;45.04;97802.50;5011262;28;20064;-70
2023/05/28 08:20:31;;;;;;;0.00;0.00;;;;;;;18.94;44.78;97801.88;5032365;28;20037;-71
2023/05/28 08:23:10;;;;;;;0.10;0.10;;;;;;;19.12;44.34;97792.72;5009725;28;20045;-71
2023/05/28 08:25:38;;;;;;;0.10;0.10;;;;;;;19.31;42.44;97791.44;5022609;28;20060;-71
2023/05/28 08:28:10;;;;;;;0.10;0.10;;;;;;;19.49;39.86;97796.63;5018141;28;20065;-71
2023/05/28 08:30:38;;;;;;;0.10;0.10;;;;;;;19.64;40.36;97791.44;5022694;28;20046;-71
2023/05/28 08:33:17;;;;;;;0.17;0.17;;;;;;;19.73;40.22;97798.09;5011886;28;20049;-71
2023/05/28 08:35:45;;;;;;;0.10;0.10;;;;;;;19.83;40.29;97791.19;5021382;28;20077;-71
2023/05/28 08:38:13;;;;;;;0.10;0.10;;;;;;;19.84;36.61;97790.94;5020378;28;20600;-70
2023/05/28 08:40:50;;;;;;;0.10;0.10;;;;;;;19.95;36.71;97798.13;5030171;28;20053;-71
2023/05/28 08:43:18;;;;;;;0.10;0.10;;;;;;;20.03;36.78;97791.50;5029528;28;20552;-70
2023/05/28 08:45:46;;;;;;;0.10;0.10;;;;;;;20.22;36.79;97781.16;5007502;28;20124;-71
2023/05/28 08:48:16;;;;;;;0.10;0.10;;;;;;;20.36;36.76;97791.38;5029163;28;20037;-73
2023/05/28 08:50:47;;;;;;;0.10;0.10;;;;;;;20.42;37.46;97789.59;5005417;28;20080;-70
2023/05/28 08:53:29;;;;;;;0.20;0.20;;;;;;;20.00;37.90;97787.38;5010473;28;20096;-69
2023/05/28 08:55:58;;;;;;;0.00;0.00;;;;;;;20.06;38.23;97783.66;5010465;28;20050;-69
2023/05/28 08:58:26;;;;;;;0.10;0.10;;;;;;;20.20;37.79;97777.88;5024949;28;20042;-69
2023/05/28 09:00:53;;;;;;;0.10;0.10;;;;;;;20.54;37.63;97781.31;5025500;28;20535;-69
2023/05/28 09:03:40;;;;;;;0.00;0.00;;;;;;;20.78;36.07;97782.66;5025963;28;20052;-71
2023/05/28 09:06:24;;;;;;;0.00;0.00;;;;;;;20.79;35.91;97787.81;5027939;28;20057;-70
2023/05/28 09:08:54;;;;;;;0.10;0.10;;;;;;;21.12;36.13;97775.13;5028018;28;20132;-69
2023/05/28 09:11:45;;;;;;;0.10;0.10;;;;;;;21.11;35.96;97778.91;5024313;28;20161;-69
2023/05/28 09:14:14;;;;;;;0.10;0.10;;;;;;;21.12;35.72;97775.94;5031198;28;20519;-69
2023/05/28 09:16:43;;;;;;;0.10;0.10;;;;;;;20.86;36.27;97780.31;5002630;28;20046;-69
2023/05/28 09:19:20;;;;;;;0.10;0.10;;;;;;;21.16;36.26;97779.78;5013237;28;20041;-69
2023/05/28 09:21:53;;;;;;;0.10;0.10;;;;;;;21.36;35.59;97776.47;5025532;28;20377;-69
2023/05/28 09:24:24;;;;;;;0.10;0.10;;;;;;;21.69;36.09;97771.81;5031625;28;20547;-69
2023/05/28 09:27:10;;;;;;;0.17;0.17;;;;;;;21.92;35.25;97777.66;5023162;28;20053;-70
2023/05/28 09:29:40;;;;;;;0.00;0.00;;;;;;;21.87;35.93;97769.50;5006151;28;20042;-69
2023/05/28 09:32:08;;;;;;;0.10;0.10;;;;;;;21.88;35.77;97781.19;5024090;28;20051;-69
2023/05/28 09:34:42;;;;;;;0.10;0.10;;;;;;;21.93;35.98;97779.31;5029899;28;20055;-70
2023/05/28 09:37:11;;;;;;;0.10;0.10;;;;;;;21.91;35.19;97773.31;5030273;28;20124;-69
2023/05/28 09:39:38;;;;;;;0.00;0.00;;;;;;;21.48;36.49;97773.56;5027713;28;20048;-70
2023/05/28 09:42:09;;;;;;;0.10;0.10;;;;;;;21.65;36.48;97771.50;5027650;28;20052;-70
2023/05/28 09:44:38;;;;;;;0.10;0.10;;;;;;;21.75;35.69;97768.88;5038972;28;20128;-70
2023/05/28 09:47:14;;;;;;;0.00;0.00;;;;;;;22.02;34.91;97771.50;5032649;28;20041;-69
2023/05/28 09:49:45;;;;;;;0.10;0.10;;;;;;;22.05;34.98;97772.88;5033273;28;20052;-69
2023/05/28 09:52:18;;;;;;;0.10;0.10;;;;;;;21.55;35.16;97769.53;5027884;28;20038;-69
2023/05/28 09:54:47;;;;;;;0.10;0.10;;;;;;;21.84;35.53;97774.63;5032754;28;20415;-69
2023/05/28 09:57:16;;;;;;;0.10;0.10;;;;;;;22.15;34.70;97767.50;5030315;28;20033;-69
2023/05/28 09:59:44;;;;;;;0.13;0.13;;;;;;;22.02;35.46;97767.94;5034016;28;20059;-70
2023/05/28 10:02:23;;;;;;;0.10;0.10;;;;;;;22.27;35.25;97768.91;5034036;28;20409;-69
2023/05/28 10:04:54;;;;;;;0.10;0.10;;;;;;;22.59;34.37;97776.09;5030255;28;20070;-69
2023/05/28 10:07:23;;;;;;;0.10;0.10;;;;;;;22.75;33.97;97774.22;5033284;28;20108;-69
2023/05/28 10:09:51;;;;;;;0.03;0.03;;;;;;;22.44;34.39;97771.41;5034427;28;20064;-69
2023/05/28 10:12:22;;;;;;;0.13;0.10;;;;;;;22.66;34.18;97769.31;5033836;28;20049;-70
2023/05/28 10:14:50;;;;;;;0.00;0.00;;;;;;;22.81;33.61;97773.22;5030694;28;20049;-69
2023/05/28 10:17:18;;;;;;;0.10;0.10;;;;;;;22.21;34.82;97761.00;5027627;28;20042;-69
2023/05/28 10:19:46;;;;;;;0.00;0.00;;;;;;;22.50;34.24;97764.09;5026625;28;20049;-69
2023/05/28 10:22:16;;;;;;;0.10;0.10;;;;;;;22.67;33.63;97757.34;5033797;28;20492;-69
2023/05/28 10:24:45;;;;;;;0.10;0.10;;;;;;;22.55;33.57;97754.03;5023893;28;20124;-69
2023/05/28 10:27:14;;;;;;;0.10;0.10;;;;;;;22.84;33.15;97759.84;5032008;28;20033;-69
2023/05/28 10:29:42;;;;;;;0.00;0.00;;;;;;;23.06;32.96;97754.19;5026492;28;20411;-72
2023/05/28 10:32:10;;;;;;;0.13;0.05;;;;;;;23.20;32.64;97749.84;5025225;28;20045;-69
2023/05/28 10:34:38;;;;;;;0.10;0.10;;;;;;;23.28;33.26;97753.91;5031961;28;20060;-69
2023/05/28 10:37:07;;;;;;;0.10;0.10;;;;;;;23.29;32.95;97750.09;5025103;28;20060;-70
2023/05/28 10:39:40;;;;;;;0.10;0.10;;;;;;;23.30;33.62;97746.31;5021836;28;20034;-69
2023/05/28 10:42:08;;;;;;;0.00;0.00;;;;;;;23.51;33.01;97745.22;5023327;28;20041;-70
2023/05/28 10:44:50;;;;;;;0.10;0.10;;;;;;;23.40;33.15;97741.66;5025606;28;20050;-69
2023/05/28 10:47:18;;;;;;;0.10;0.10;;;;;;;23.63;32.28;97747.69;5018895;28;20046;-68
2023/05/28 10:49:59;;;;;;;0.00;0.00;;;;;;;23.77;32.37;97737.84;5022335;28;20582;-69
2023/05/28 10:52:43;;;;;;;0.10;0.10;;;;;;;23.73;31.72;97732.13;5019135;28;20521;-69
2023/05/28 10:55:13;;;;;;;0.10;0.10;;;;;;;23.66;32.36;97739.78;5026313;28;20049;-69
2023/05/28 10:57:42;;;;;;;0.10;0.10;;;;;;;23.70;32.52;97738.13;5027664;28;20038;-72
2023/05/28 11:00:13;;;;;;;0.00;0.00;;;;;;;23.84;32.18;97732.09;5021958;28;20041;-68
2023/05/28 11:02:43;;;;;;;0.10;0.10;;;;;;;23.22;32.58;97730.50;5024524;28;20041;-71
2023/05/28 11:05:11;;;;;;;0.10;0.10;;;;;;;23.43;32.75;97735.69;5026462;28;20042;-69
2023/05/28 11:07:40;;;;;;;0.03;0.03;;;;;;;23.77;31.64;97722.28;5025209;28;20057;-69
2023/05/28 11:10:09;;;;;;;0.00;0.00;;;;;;;23.98;31.04;97733.16;5016331;28;20096;-69
2023/05/28 11:12:39;;;;;;;0.00;0.00;;;;;;;23.72;30.96;97727.75;5030031;28;20057;-69
2023/05/28 11:15:09;;;;;;;0.10;0.10;;;;;;;23.83;30.67;97731.28;5022647;28;20551;-69
2023/05/28 11:17:38;;;;;;;0.10;0.10;;;;;;;23.64;31.54;97722.88;5025836;28;20116;-68
2023/05/28 11:20:06;;;;;;;0.10;0.10;;;;;;;24.01;30.83;97722.50;5015667;28;20047;-69
2023/05/28 11:22:36;;;;;;;0.00;0.00;;;;;;;24.11;29.39;97721.63;5017282;28;20056;-71
2023/05/28 11:25:08;;;;;;;0.10;0.10;;;;;;;23.99;30.01;97719.22;5022441;28;20041;-69
2023/05/28 11:27:37;;;;;;;0.10;0.10;;;;;;;23.56;30.81;97714.44;5022663;28;20157;-69
2023/05/28 11:30:11;;;;;;;0.10;0.10;;;;;;;23.58;29.70;97718.50;5031783;28;20124;-69
2023/05/28 11:32:39;;;;;;;0.00;0.00;;;;;;;23.57;30.56;97716.88;5023654;28;20073;-70
2023/05/28 11:35:11;;;;;;;0.00;0.00;;;;;;;23.86;30.30;97719.81;5027472;28;20136;-69
2023/05/28 11:37:39;;;;;;;0.00;0.00;;;;;;;24.00;30.74;97711.84;5017839;28;20400;-69
2023/05/28 11:40:10;;;;;;;0.00;0.00;;;;;;;24.25;29.59;97722.72;5017055;28;20382;-69
2023/05/28 11:42:38;;;;;;;0.10;0.10;;;;;;;24.17;30.18;97712.34;5027273;28;20041;-69
2023/05/28 11:45:07;;;;;;;0.00;0.00;;;;;;;23.98;29.33;97706.69;5028397;28;20056;-71
2023/05/28 11:47:36;;;;;;;0.10;0.10;;;;;;;24.17;29.30;97695.16;5026786;28;20064;-69
2023/05/28 11:50:07;;;;;;;0.10;0.10;;;;;;;24.38;29.31;97694.00;5022386;28;20108;-69